createdAt,value
2018-05-07T00:00:23.764Z,0
2018-05-07T00:10:21.853Z,0
2018-05-07T00:20:20.164Z,0
2018-05-07T00:30:21.160Z,0
2018-05-07T00:40:20.988Z,0
2018-05-07T00:50:21.387Z,0
2018-05-07T01:00:20.780Z,0
2018-05-07T01:10:20.336Z,0
2018-05-07T01:20:59.301Z,0
2018-05-07T01:30:59.764Z,0
2018-05-07T01:41:02.233Z,0
2018-05-07T01:50:20.861Z,0
2018-05-07T02:00:24.404Z,0
2018-05-07T02:10:19.727Z,0
2018-05-07T02:21:02.454Z,0
2018-05-07T02:31:04.443Z,0
2018-05-07T02:40:20.188Z,0
2018-05-07T02:51:05.449Z,0
2018-05-07T03:00:21.174Z,0
2018-05-07T03:10:21.558Z,4
2018-05-07T03:20:22.086Z,12
2018-05-07T03:30:23.774Z,48
2018-05-07T03:40:21.953Z,140
2018-05-07T03:51:02.946Z,348
2018-05-07T04:00:21.195Z,660
2018-05-07T04:10:19.922Z,1028
2018-05-07T04:20:21.697Z,1460
2018-05-07T04:30:21.270Z,1756
2018-05-07T04:40:23.443Z,2192
2018-05-07T04:50:50.186Z,2824
2018-05-07T05:00:23.088Z,2664
2018-05-07T05:10:20.429Z,2844
2018-05-07T05:21:03.293Z,3068
2018-05-07T05:30:30.195Z,3244
2018-05-07T05:41:04.513Z,3408
2018-05-07T05:50:23.004Z,3548
2018-05-07T06:00:21.082Z,3680
2018-05-07T06:10:20.366Z,3816
2018-05-07T06:20:21.470Z,4048
2018-05-07T06:30:14.630Z,4660
2018-05-07T06:40:13.518Z,6564
2018-05-07T06:50:13.425Z,11616
2018-05-07T07:00:13.461Z,55456
2018-05-07T07:10:13.484Z,62560
2018-05-07T07:20:13.555Z,66144
2018-05-07T07:30:13.341Z,59424
2018-05-07T07:40:13.384Z,61696
2018-05-07T07:50:13.475Z,68416
2018-05-07T08:00:13.354Z,79008
2018-05-07T08:10:13.459Z,73472
2018-05-07T08:20:13.425Z,90368
2018-05-07T08:30:13.406Z,88800
2018-05-07T08:40:13.437Z,71232
2018-05-07T08:50:13.409Z,5376
2018-05-07T09:00:13.410Z,4124
2018-05-07T09:10:13.413Z,4040
2018-05-07T09:20:13.433Z,3924
2018-05-07T09:30:13.569Z,3860
2018-05-07T09:40:13.491Z,3756
2018-05-07T09:50:19.849Z,3712
2018-05-07T10:00:21.158Z,3752
2018-05-07T10:10:38.599Z,3596
2018-05-07T10:20:14.313Z,3540
2018-05-07T10:30:13.498Z,3528
2018-05-07T10:40:13.499Z,3504
2018-05-07T10:50:13.441Z,3472
2018-05-07T11:00:13.434Z,3460
2018-05-07T11:10:13.503Z,3448
2018-05-07T11:20:13.603Z,3376
2018-05-07T11:30:13.481Z,3424
2018-05-07T11:40:13.633Z,3304
2018-05-07T11:50:13.456Z,3300
2018-05-07T12:00:13.535Z,3284
2018-05-07T12:10:13.410Z,3236
2018-05-07T12:20:13.476Z,3196
2018-05-07T12:30:13.516Z,3208
2018-05-07T12:40:13.515Z,3176
2018-05-07T12:50:14.266Z,3104
2018-05-07T13:00:13.685Z,3092
2018-05-07T13:10:13.477Z,3020
2018-05-07T13:20:13.484Z,3004
2018-05-07T13:30:13.509Z,3016
2018-05-07T13:40:13.818Z,3032
2018-05-07T13:50:13.484Z,3028
2018-05-07T14:00:14.534Z,3008
2018-05-07T14:10:13.677Z,3000
2018-05-07T14:20:14.549Z,3008
2018-05-07T14:30:13.599Z,2980
2018-05-07T14:40:13.628Z,2964
2018-05-07T14:50:13.533Z,2948
2018-05-07T15:00:13.492Z,2932
2018-05-07T15:10:14.389Z,2944
2018-05-07T15:20:13.531Z,2956
2018-05-07T15:30:13.489Z,2876
2018-05-07T15:40:13.489Z,2876
2018-05-07T15:50:13.557Z,2800
2018-05-07T16:00:13.543Z,2796
2018-05-07T16:10:13.598Z,2744
2018-05-07T16:20:13.801Z,2708
2018-05-07T16:30:13.617Z,2656
2018-05-07T16:40:13.880Z,2608
2018-05-07T16:50:13.632Z,2560
2018-05-07T17:00:13.544Z,2492
2018-05-07T17:10:13.704Z,2436
2018-05-07T17:20:13.580Z,2348
2018-05-07T17:30:13.535Z,2248
2018-05-07T17:40:14.262Z,2124
2018-05-07T17:50:14.518Z,1960
2018-05-07T18:00:13.921Z,1792
2018-05-07T18:10:13.689Z,1552
2018-05-07T18:20:13.543Z,1292
2018-05-07T18:30:13.812Z,1040
2018-05-07T18:40:13.625Z,784
2018-05-07T18:50:14.008Z,520
2018-05-07T19:00:14.114Z,288
2018-05-07T19:10:14.440Z,124
2018-05-07T19:20:13.565Z,40
2018-05-07T19:30:13.573Z,12
2018-05-07T19:40:14.016Z,4
2018-05-07T19:50:14.558Z,0
2018-05-07T20:00:13.618Z,0
2018-05-07T20:10:13.593Z,0
2018-05-07T20:20:13.666Z,0
2018-05-07T20:30:13.602Z,0
2018-05-07T20:40:13.718Z,0
2018-05-07T20:50:14.677Z,0
2018-05-07T21:00:14.641Z,4
2018-05-07T21:10:13.619Z,0
2018-05-07T21:20:14.470Z,0
2018-05-07T21:30:15.755Z,0
2018-05-07T21:40:13.840Z,0
2018-05-07T21:50:14.089Z,0
2018-05-07T22:00:14.406Z,0
2018-05-07T22:10:14.135Z,0
2018-05-07T22:20:14.343Z,0
2018-05-07T22:30:13.693Z,0
2018-05-07T22:40:14.554Z,0
2018-05-07T22:50:13.826Z,0
2018-05-07T23:00:14.205Z,0
2018-05-07T23:10:14.247Z,0
2018-05-07T23:20:13.643Z,0
2018-05-07T23:30:21.393Z,0
2018-05-07T23:40:13.539Z,0
2018-05-07T23:50:13.547Z,0
